createdAt,value
2018-08-18T00:01:21.810Z,101396.03
2018-08-18T00:03:48.842Z,101397.53
2018-08-18T00:06:15.815Z,101395.58
2018-08-18T00:08:42.805Z,101394.33
2018-08-18T00:11:09.824Z,101389.88
2018-08-18T00:13:52.052Z,101389.13
2018-08-18T00:16:24.439Z,101389.05
2018-08-18T00:18:55.073Z,101385.29
2018-08-18T00:21:22.151Z,101381.55
2018-08-18T00:23:59.060Z,101381.73
2018-08-18T00:26:26.454Z,101383.09
2018-08-18T00:28:54.052Z,101384.47
2018-08-18T00:31:21.086Z,101383.89
2018-08-18T00:33:48.173Z,101390.41
2018-08-18T00:36:15.172Z,101402.13
2018-08-18T00:38:42.396Z,101399.64
2018-08-18T00:41:09.480Z,101402.69
2018-08-18T00:43:36.559Z,101398.69
2018-08-18T00:46:03.943Z,101401.06
2018-08-18T00:48:30.948Z,101399.71
2018-08-18T00:50:57.935Z,101399.83
2018-08-18T00:53:24.951Z,101403.81
2018-08-18T00:55:51.952Z,101400.83
2018-08-18T00:58:26.390Z,101406.27
2018-08-18T01:00:59.170Z,101399.67
2018-08-18T01:03:26.223Z,101400.08
2018-08-18T01:05:54.068Z,101401.81
2018-08-18T01:08:21.083Z,101407.67
2018-08-18T01:10:48.151Z,101408.75
2018-08-18T01:13:15.182Z,101403.63
2018-08-18T01:15:42.235Z,101410.31
2018-08-18T01:18:09.340Z,101405.08
2018-08-18T01:20:36.369Z,101411.86
2018-08-18T01:23:03.395Z,101410.80
2018-08-18T01:25:30.425Z,101406.82
2018-08-18T01:27:58.629Z,101418.16
2018-08-18T01:30:25.652Z,101418.83
2018-08-18T01:32:52.658Z,101418.36
2018-08-18T01:35:19.659Z,101416.83
2018-08-18T01:37:46.683Z,101418.95
2018-08-18T01:40:13.744Z,101416.72
2018-08-18T01:42:40.809Z,101413.70
2018-08-18T01:45:07.812Z,101411.28
2018-08-18T01:47:34.969Z,101411.12
2018-08-18T01:50:07.588Z,101417.78
2018-08-18T01:52:37.543Z,101418.58
2018-08-18T01:55:06.041Z,101423.22
2018-08-18T01:57:33.097Z,101417.31
2018-08-18T02:00:04.676Z,101419.05
2018-08-18T02:02:31.679Z,101415.77
2018-08-18T02:05:06.895Z,101410.93
2018-08-18T02:07:33.910Z,101408.57
2018-08-18T02:10:00.980Z,101412.86
2018-08-18T02:12:28.502Z,101413.34
2018-08-18T02:14:55.725Z,101410.14
2018-08-18T02:17:35.397Z,101408.48
2018-08-18T02:20:02.642Z,101411.99
2018-08-18T02:22:30.422Z,101408.09
2018-08-18T02:24:57.639Z,101411.48
2018-08-18T02:27:24.913Z,101409.82
2018-08-18T02:30:04.240Z,101402.06
2018-08-18T02:32:35.793Z,101405.56
2018-08-18T02:35:03.153Z,101405.77
2018-08-18T02:37:30.595Z,101400.92
2018-08-18T02:39:57.597Z,101399.55
2018-08-18T02:42:24.610Z,101380.25
2018-08-18T02:44:51.959Z,101404.78
2018-08-18T02:47:18.991Z,101406.05
2018-08-18T02:49:46.957Z,101404.67
2018-08-18T02:52:20.806Z,101411.86
2018-08-18T02:54:52.193Z,101412.41
2018-08-18T02:57:19.192Z,101414.46
2018-08-18T02:59:46.275Z,101412.92
2018-08-18T03:02:13.271Z,101412.14
2018-08-18T03:04:46.076Z,101410.41
2018-08-18T03:07:13.084Z,101410.98
2018-08-18T03:09:40.124Z,101414.77
2018-08-18T03:12:07.139Z,101419.42
2018-08-18T03:14:34.137Z,101421.45
2018-08-18T03:17:01.143Z,101417.86
2018-08-18T03:19:28.135Z,101422.31
2018-08-18T03:21:55.124Z,101425.62
2018-08-18T03:24:23.268Z,101426.09
2018-08-18T03:26:52.956Z,101427.88
2018-08-18T03:29:21.114Z,101436.68
2018-08-18T03:31:48.467Z,101440.66
2018-08-18T03:34:15.827Z,101439.28
2018-08-18T03:36:49.306Z,101447.03
2018-08-18T03:39:23.883Z,101445.17
2018-08-18T03:41:52.327Z,101446.36
2018-08-18T03:44:19.468Z,101447.42
2018-08-18T03:46:46.507Z,101451.20
2018-08-18T03:49:13.519Z,101454.20
2018-08-18T03:51:42.488Z,101450.13
2018-08-18T03:54:09.512Z,101450.33
2018-08-18T03:56:36.525Z,101449.34
2018-08-18T03:59:03.584Z,101448.09
2018-08-18T04:01:40.063Z,101448.88
2018-08-18T04:04:08.023Z,101447.14
2018-08-18T04:06:36.604Z,101457.23
2018-08-18T04:09:11.275Z,101455.86
2018-08-18T04:11:38.922Z,101452.86
2018-08-18T04:14:06.006Z,101459.73
2018-08-18T04:16:34.947Z,101462.81
2018-08-18T04:19:03.654Z,101459.03
2018-08-18T04:21:33.172Z,101465.55
2018-08-18T04:24:00.152Z,101412.64
2018-08-18T04:26:27.651Z,101465.98
2018-08-18T04:28:55.306Z,101463.89
2018-08-18T04:31:35.647Z,101464.84
2018-08-18T04:34:03.937Z,101466.08
2018-08-18T04:36:31.486Z,101467.29
2018-08-18T04:38:58.569Z,101467.41
2018-08-18T04:41:25.702Z,101459.80
2018-08-18T04:43:52.798Z,101458.73
2018-08-18T04:46:19.804Z,101458.80
2018-08-18T04:48:46.789Z,101462.41
2018-08-18T04:51:14.069Z,101459.04
2018-08-18T04:53:41.068Z,101463.63
2018-08-18T04:56:08.103Z,101464.50
2018-08-18T04:58:35.064Z,101461.01
2018-08-18T05:01:02.079Z,101453.91
2018-08-18T05:03:30.003Z,101456.72
2018-08-18T05:05:56.992Z,101455.98
2018-08-18T05:08:23.990Z,101458.20
2018-08-18T05:10:51.057Z,101467.86
2018-08-18T05:13:18.187Z,101461.97
2018-08-18T05:15:45.273Z,101463.54
2018-08-18T05:18:12.253Z,101464.20
2018-08-18T05:20:39.253Z,101460.42
2018-08-18T05:23:20.935Z,101459.16
2018-08-18T05:25:49.864Z,101449.87
2018-08-18T05:28:16.914Z,101453.28
2018-08-18T05:30:43.910Z,101450.29
2018-08-18T05:33:10.980Z,101460.37
2018-08-18T05:35:37.976Z,101463.75
2018-08-18T05:38:05.065Z,101466.09
2018-08-18T05:40:33.291Z,101472.98
2018-08-18T05:43:00.546Z,101465.50
2018-08-18T05:45:30.214Z,101466.95
2018-08-18T05:47:57.238Z,101465.87
2018-08-18T05:50:24.827Z,101464.09
2018-08-18T05:52:59.928Z,101461.30
2018-08-18T05:55:26.963Z,101465.89
2018-08-18T05:57:53.967Z,101461.97
2018-08-18T06:00:23.067Z,101464.69
2018-08-18T06:02:55.704Z,101466.64
2018-08-18T06:05:25.074Z,101464.10
2018-08-18T06:07:52.061Z,101465.33
2018-08-18T06:10:19.053Z,101473.02
2018-08-18T06:12:46.354Z,101471.28
2018-08-18T06:15:13.372Z,101477.00
2018-08-18T06:17:40.863Z,101472.58
2018-08-18T06:20:07.928Z,101475.84
2018-08-18T06:22:35.368Z,101482.39
2018-08-18T06:25:02.489Z,101479.39
2018-08-18T06:27:29.575Z,101482.17
2018-08-18T06:29:57.735Z,101479.30
2018-08-18T06:32:24.867Z,101479.97
2018-08-18T06:34:52.097Z,101482.09
2018-08-18T06:37:19.595Z,101477.84
2018-08-18T06:39:55.036Z,101476.25
2018-08-18T06:42:34.669Z,101471.73
2018-08-18T06:45:01.753Z,101477.13
2018-08-18T06:47:28.766Z,101479.20
2018-08-18T06:49:55.751Z,101478.66
2018-08-18T06:52:23.115Z,101482.47
2018-08-18T06:54:51.447Z,101481.76
2018-08-18T06:57:30.271Z,101478.05
2018-08-18T07:00:02.084Z,101480.94
2018-08-18T07:02:29.087Z,101475.72
2018-08-18T07:04:56.159Z,101477.00
2018-08-18T07:07:26.075Z,101476.56
2018-08-18T07:09:53.566Z,101475.51
2018-08-18T07:12:20.544Z,101480.08
2018-08-18T07:14:47.532Z,101477.50
2018-08-18T07:17:16.140Z,101480.04
2018-08-18T07:19:43.140Z,101480.42
2018-08-18T07:22:14.251Z,101479.34
2018-08-18T07:24:41.323Z,101477.27
2018-08-18T07:27:08.362Z,101479.45
2018-08-18T07:29:46.989Z,101479.28
2018-08-18T07:32:14.857Z,101480.70
2018-08-18T07:34:41.832Z,101482.38
2018-08-18T07:37:09.361Z,101480.30
2018-08-18T07:39:37.009Z,101485.34
2018-08-18T07:42:04.041Z,101485.94
2018-08-18T07:44:31.568Z,101493.16
2018-08-18T07:46:58.618Z,101492.03
2018-08-18T07:49:25.768Z,101494.63
2018-08-18T07:51:52.951Z,101488.27
2018-08-18T07:54:20.039Z,101477.64
2018-08-18T07:56:47.197Z,101485.63
2018-08-18T07:59:14.579Z,101482.63
2018-08-18T08:01:41.567Z,101488.74
2018-08-18T08:04:08.544Z,101487.41
2018-08-18T08:06:35.746Z,101486.13
2018-08-18T08:09:03.817Z,101484.41
2018-08-18T08:14:58.789Z,101487.81
2018-08-18T08:21:03.773Z,101489.02
2018-08-18T08:23:31.013Z,101487.66
2018-08-18T08:25:59.454Z,101481.95
2018-08-18T08:28:26.792Z,101485.00
2018-08-18T08:30:53.865Z,101481.58
2018-08-18T08:33:34.695Z,101478.56
2018-08-18T08:36:02.345Z,101476.88
2018-08-18T08:38:41.125Z,101482.56
2018-08-18T08:41:14.983Z,101484.81
2018-08-18T08:43:41.988Z,101481.11
2018-08-18T08:46:09.132Z,101481.80
2018-08-18T08:48:36.209Z,101484.89
2018-08-18T08:51:03.671Z,101480.75
2018-08-18T08:53:31.015Z,101490.16
2018-08-18T08:55:58.011Z,101482.69
2018-08-18T08:58:25.243Z,101479.66
2018-08-18T09:00:52.311Z,101477.75
2018-08-18T09:03:19.307Z,101481.23
2018-08-18T09:05:46.484Z,101485.47
2018-08-18T09:08:13.501Z,101477.78
2018-08-18T09:10:40.573Z,101482.14
2018-08-18T09:13:07.695Z,101484.16
2018-08-18T09:15:34.790Z,101488.28
2018-08-18T09:18:01.784Z,101485.05
2018-08-18T09:20:33.397Z,101477.08
2018-08-18T09:23:01.572Z,101473.56
2018-08-18T09:25:31.200Z,101480.70
2018-08-18T09:28:00.682Z,101480.27
2018-08-18T09:30:29.031Z,101473.87
2018-08-18T09:32:59.735Z,101470.39
2018-08-18T09:35:26.739Z,101468.95
2018-08-18T09:37:57.565Z,101474.28
2018-08-18T09:40:25.431Z,101471.58
2018-08-18T09:42:52.411Z,101471.08
2018-08-18T09:45:19.539Z,101471.52
2018-08-18T09:47:46.556Z,101471.47
2018-08-18T09:50:13.583Z,101464.05
2018-08-18T09:52:40.652Z,101464.77
2018-08-18T09:55:07.772Z,101466.73
2018-08-18T09:57:34.845Z,101466.28
2018-08-18T10:00:01.870Z,101461.88
2018-08-18T10:02:28.995Z,101457.13
2018-08-18T10:04:55.988Z,101460.02
2018-08-18T10:07:23.164Z,101460.31
2018-08-18T10:09:50.636Z,101463.14
2018-08-18T10:12:17.663Z,101465.28
2018-08-18T10:14:44.670Z,101464.48
2018-08-18T10:17:11.755Z,101463.62
2018-08-18T10:19:39.088Z,101458.77
2018-08-18T10:22:06.172Z,101452.72
2018-08-18T10:24:33.289Z,101452.92
2018-08-18T10:27:03.515Z,101459.44
2018-08-18T10:29:30.500Z,101448.48
2018-08-18T10:31:58.327Z,101455.45
2018-08-18T10:34:26.721Z,101459.58
2018-08-18T10:36:55.211Z,101449.53
2018-08-18T10:39:22.228Z,101449.27
2018-08-18T10:41:59.026Z,101440.92
2018-08-18T10:44:26.133Z,101449.63
2018-08-18T10:47:07.631Z,101458.84
2018-08-18T10:49:46.276Z,101448.77
2018-08-18T10:52:25.593Z,101452.87
2018-08-18T10:54:52.640Z,101452.90
2018-08-18T10:57:31.476Z,101450.70
2018-08-18T10:59:59.235Z,101464.05
2018-08-18T11:02:32.431Z,101459.53
2018-08-18T11:04:59.668Z,101459.53
2018-08-18T11:07:26.844Z,101459.77
2018-08-18T11:09:53.929Z,101465.23
2018-08-18T11:12:20.959Z,101462.50
2018-08-18T11:14:54.431Z,101456.61
2018-08-18T11:17:21.612Z,101457.02
2018-08-18T11:19:48.695Z,101458.16
2018-08-18T11:23:01.760Z,101454.49
2018-08-18T11:25:33.906Z,101463.81
2018-08-18T11:28:01.276Z,101463.69
2018-08-18T11:30:28.719Z,101452.60
2018-08-18T11:32:56.803Z,101450.25
2018-08-18T11:35:23.899Z,101463.64
2018-08-18T11:38:11.597Z,101459.64
2018-08-18T11:40:38.684Z,101458.42
2018-08-18T11:43:06.908Z,101452.41
2018-08-18T11:45:35.061Z,101457.11
2018-08-18T11:48:18.797Z,101454.88
2018-08-18T11:50:46.379Z,101458.52
2018-08-18T11:53:13.604Z,101449.56
2018-08-18T11:55:40.810Z,101449.11
2018-08-18T11:58:09.958Z,101441.17
2018-08-18T12:01:08.678Z,101443.32
2018-08-18T12:03:35.653Z,101454.52
2018-08-18T12:06:03.859Z,101453.27
2018-08-18T12:08:32.239Z,101449.64
2018-08-18T12:11:00.787Z,101443.75
2018-08-18T12:13:33.420Z,101445.23
2018-08-18T12:16:08.888Z,101447.19
2018-08-18T12:18:37.479Z,101442.44
2018-08-18T12:21:04.901Z,101439.02
2018-08-18T12:23:35.123Z,101433.81
2018-08-18T12:26:15.152Z,101436.91
2018-08-18T12:28:43.245Z,101426.20
2018-08-18T12:31:16.221Z,101444.24
2018-08-18T12:33:43.573Z,101434.59
2018-08-18T12:36:10.699Z,101432.49
2018-08-18T12:38:41.048Z,101428.22
2018-08-18T12:41:08.320Z,101430.14
2018-08-18T12:46:35.184Z,101430.44
2018-08-18T12:49:03.635Z,101432.23
2018-08-18T12:51:30.616Z,101434.94
2018-08-18T12:53:57.651Z,101433.06
2018-08-18T12:56:26.639Z,101425.00
2018-08-18T12:58:53.661Z,101417.02
2018-08-18T13:01:37.408Z,101403.39
2018-08-18T13:04:06.701Z,101417.73
2018-08-18T13:06:51.131Z,101405.92
2018-08-18T13:09:20.260Z,101410.73
2018-08-18T13:11:48.444Z,101408.73
2018-08-18T13:14:17.849Z,101398.11
2018-08-18T13:16:44.876Z,101397.80
2018-08-18T13:19:13.879Z,101386.66
2018-08-18T13:21:40.861Z,101389.30
2018-08-18T13:24:07.892Z,101383.91
2018-08-18T13:26:34.985Z,101381.56
2018-08-18T13:29:08.661Z,101378.36
2018-08-18T13:31:38.024Z,101377.44
2018-08-18T13:34:06.112Z,101374.99
2018-08-18T13:36:33.635Z,101380.34
2018-08-18T13:39:00.647Z,101382.03
2018-08-18T13:41:27.750Z,101370.14
2018-08-18T13:43:54.799Z,101369.22
2018-08-18T13:46:33.626Z,101374.41
2018-08-18T13:49:03.332Z,101374.44
2018-08-18T13:51:31.111Z,101366.94
2018-08-18T13:54:00.189Z,101368.00
2018-08-18T13:56:27.423Z,101370.58
2018-08-18T13:58:55.407Z,101367.91
2018-08-18T14:01:32.625Z,101370.16
2018-08-18T14:03:59.678Z,101367.97
2018-08-18T14:06:26.791Z,101365.43
2018-08-18T14:08:57.769Z,101369.45
2018-08-18T14:11:25.612Z,101367.61
2018-08-18T14:13:52.683Z,101368.92
2018-08-18T14:16:19.684Z,101361.36
2018-08-18T14:18:46.676Z,101355.41
2018-08-18T14:21:13.828Z,101370.03
2018-08-18T14:23:40.853Z,101361.46
2018-08-18T14:26:08.178Z,101356.87
2018-08-18T14:28:35.386Z,101366.05
2018-08-18T14:31:02.367Z,101364.21
2018-08-18T14:33:30.030Z,101365.87
2018-08-18T14:36:02.764Z,101373.52
2018-08-18T14:38:29.840Z,101372.98
2018-08-18T14:40:56.876Z,101368.45
2018-08-18T14:43:28.466Z,101367.05
2018-08-18T14:45:56.051Z,101367.92
2018-08-18T14:48:23.060Z,101367.09
2018-08-18T14:50:50.076Z,101357.34
2018-08-18T14:53:22.980Z,101360.25
2018-08-18T14:55:49.990Z,101369.42
2018-08-18T14:58:21.631Z,101362.81
2018-08-18T15:00:49.916Z,101363.77
2018-08-18T15:03:17.040Z,101357.73
2018-08-18T15:05:44.147Z,101357.56
2018-08-18T15:08:11.211Z,101360.66
2018-08-18T15:10:40.562Z,101353.06
2018-08-18T15:13:08.341Z,101357.88
2018-08-18T15:15:35.856Z,101363.20
2018-08-18T15:18:06.443Z,101366.44
2018-08-18T15:20:35.801Z,101360.89
2018-08-18T15:23:03.739Z,101364.92
2018-08-18T15:25:31.821Z,101361.80
2018-08-18T15:28:02.476Z,101356.91
2018-08-18T15:30:29.464Z,101359.12
2018-08-18T15:32:56.555Z,101359.22
2018-08-18T15:35:24.849Z,101354.91
2018-08-18T15:37:51.852Z,101352.41
2018-08-18T15:40:18.867Z,101353.07
2018-08-18T15:42:45.915Z,101348.11
2018-08-18T15:45:13.009Z,101352.58
2018-08-18T15:47:39.993Z,101345.36
2018-08-18T15:50:07.002Z,101351.11
2018-08-18T15:52:34.467Z,101343.66
2018-08-18T15:55:02.840Z,101342.58
2018-08-18T15:57:29.975Z,101342.48
2018-08-18T15:59:57.094Z,101339.56
2018-08-18T16:02:24.131Z,101346.34
2018-08-18T16:04:51.127Z,101343.94
2018-08-18T16:07:18.143Z,101343.50
2018-08-18T16:09:45.431Z,101344.00
2018-08-18T16:12:12.567Z,101351.55
2018-08-18T16:14:39.637Z,101340.74
2018-08-18T16:17:06.768Z,101345.73
2018-08-18T16:19:34.735Z,101343.00
2018-08-18T16:22:02.248Z,101341.21
2018-08-18T16:24:31.491Z,101341.31
2018-08-18T16:26:59.199Z,101338.31
2018-08-18T16:29:26.407Z,101340.88
2018-08-18T16:32:08.311Z,101343.45
2018-08-18T16:34:35.308Z,101351.56
2018-08-18T16:37:02.295Z,101350.34
2018-08-18T16:39:29.273Z,101347.44
2018-08-18T16:41:56.264Z,101346.00
2018-08-18T16:44:23.244Z,101350.55
2018-08-18T16:46:50.232Z,101346.20
2018-08-18T16:49:17.246Z,101345.05
2018-08-18T16:51:44.290Z,101345.86
2018-08-18T16:54:20.048Z,101344.14
2018-08-18T16:56:47.998Z,101342.49
2018-08-18T16:59:20.104Z,101344.21
2018-08-18T17:09:19.083Z,101346.33
2018-08-18T17:19:10.383Z,101348.30
2018-08-18T17:26:46.911Z,101351.45
2018-08-18T17:30:37.681Z,101355.30
2018-08-18T17:33:05.412Z,101358.30
2018-08-18T17:35:32.536Z,101356.51
2018-08-18T17:56:47.416Z,101381.70
2018-08-18T18:07:43.348Z,101381.69
2018-08-18T18:10:10.643Z,101379.00
2018-08-18T18:12:37.980Z,101391.28
2018-08-18T18:15:39.318Z,101391.20
2018-08-18T18:18:13.306Z,101389.69
2018-08-18T18:20:41.409Z,101394.63
2018-08-18T18:23:10.444Z,101391.46
2018-08-18T18:25:37.924Z,101393.84
2018-08-18T18:28:05.177Z,101393.40
2018-08-18T18:30:32.417Z,101401.72
2018-08-18T18:32:59.843Z,101401.88
2018-08-18T18:35:27.017Z,101401.27
2018-08-18T18:37:59.807Z,101403.73
2018-08-18T18:40:27.183Z,101408.79
2018-08-18T18:42:54.563Z,101410.73
2018-08-18T18:45:23.561Z,101408.92
2018-08-18T18:47:50.628Z,101410.05
2018-08-18T18:50:19.021Z,101414.07
2018-08-18T18:52:46.615Z,101409.57
2018-08-18T18:55:13.930Z,101407.66
2018-08-18T18:57:58.744Z,101413.84
2018-08-18T19:00:26.148Z,101410.74
2018-08-18T19:02:53.648Z,101408.09
2018-08-18T19:05:25.051Z,101416.37
2018-08-18T19:08:03.576Z,101413.83
2018-08-18T19:10:30.812Z,101415.83
2018-08-18T19:12:58.348Z,101420.08
2018-08-18T19:15:26.829Z,101422.50
2018-08-18T19:17:54.125Z,101422.33
2018-08-18T19:20:22.890Z,101421.42
2018-08-18T19:22:51.268Z,101417.39
2018-08-18T19:25:18.324Z,101422.08
2018-08-18T19:27:45.388Z,101416.07
2018-08-18T19:30:12.400Z,101424.83
2018-08-18T19:32:39.962Z,101419.31
2018-08-18T19:35:07.866Z,101415.58
2018-08-18T19:37:39.480Z,101417.08
2018-08-18T19:40:06.722Z,101412.00
2018-08-18T19:42:34.096Z,101413.16
2018-08-18T19:45:01.351Z,101421.56
2018-08-18T19:47:35.442Z,101423.13
2018-08-18T19:50:02.999Z,101417.92
2018-08-18T19:52:30.351Z,101420.25
2018-08-18T19:54:57.769Z,101416.42
2018-08-18T19:57:30.738Z,101414.84
2018-08-18T20:00:05.585Z,101418.10
2018-08-18T20:03:11.994Z,101422.85
2018-08-18T20:05:39.236Z,101422.98
2018-08-18T20:08:06.912Z,101427.59
2018-08-18T20:10:44.035Z,101427.19
2018-08-18T20:13:12.128Z,101423.20
2018-08-18T20:15:39.748Z,101421.33
2018-08-18T20:18:06.774Z,101421.91
2018-08-18T20:20:34.132Z,101419.41
2018-08-18T20:23:01.151Z,101428.73
2018-08-18T20:25:28.375Z,101427.18
2018-08-18T20:27:55.484Z,101429.44
2018-08-18T20:30:22.575Z,101434.00
2018-08-18T20:32:49.886Z,101435.85
2018-08-18T20:35:16.875Z,101430.92
2018-08-18T20:37:43.867Z,101430.35
2018-08-18T20:40:11.268Z,101432.32
2018-08-18T20:42:40.953Z,101431.87
2018-08-18T20:45:09.260Z,101431.58
2018-08-18T20:47:36.984Z,101431.62
2018-08-18T20:50:06.140Z,101435.85
2018-08-18T20:52:33.540Z,101437.94
2018-08-18T20:55:01.144Z,101441.77
2018-08-18T20:57:28.136Z,101437.33
2018-08-18T20:59:55.199Z,101437.29
2018-08-18T21:02:22.386Z,101442.91
2018-08-18T21:04:54.408Z,101440.77
2018-08-18T21:07:22.127Z,101445.17
2018-08-18T21:09:49.494Z,101444.23
2018-08-18T21:12:16.476Z,101446.94
2018-08-18T21:14:43.555Z,101444.67
2018-08-18T21:17:10.555Z,101445.33
2018-08-18T21:19:37.554Z,101450.00
2018-08-18T21:22:04.608Z,101444.42
2018-08-18T21:24:31.839Z,101449.42
2018-08-18T21:26:59.425Z,101441.13
2018-08-18T21:29:27.171Z,101445.23
2018-08-18T21:31:56.192Z,101442.10
2018-08-18T21:34:24.543Z,101440.75
2018-08-18T21:36:54.696Z,101444.34
2018-08-18T21:39:21.748Z,101448.41
2018-08-18T21:41:49.112Z,101449.67
2018-08-18T21:44:16.431Z,101452.45
2018-08-18T21:46:43.721Z,101455.81
2018-08-18T21:49:11.632Z,101450.23
2018-08-18T21:51:38.807Z,101451.98
2018-08-18T21:54:06.391Z,101448.99
2018-08-18T21:56:35.315Z,101454.13
2018-08-18T21:59:07.238Z,101456.63
2018-08-18T22:01:34.787Z,101456.41
2018-08-18T22:04:02.000Z,101459.90
2018-08-18T22:06:29.220Z,101447.47
2018-08-18T22:09:13.591Z,101457.98
2018-08-18T22:11:41.040Z,101459.93
2018-08-18T22:14:12.338Z,101455.98
2018-08-18T22:16:44.333Z,101459.25
2018-08-18T22:19:11.768Z,101455.57
2018-08-18T22:21:39.055Z,101455.43
2018-08-18T22:24:06.296Z,101460.52
2018-08-18T22:26:34.512Z,101461.50
2018-08-18T22:29:02.827Z,101468.07
2018-08-18T22:31:30.579Z,101467.93
2018-08-18T22:33:58.549Z,101465.07
2018-08-18T22:36:27.732Z,101471.69
2018-08-18T22:38:55.851Z,101472.73
2018-08-18T22:41:23.226Z,101466.98
2018-08-18T22:43:50.470Z,101469.44
2018-08-18T22:46:17.839Z,101464.36
2018-08-18T22:48:45.893Z,101470.97
2018-08-18T22:51:13.219Z,101474.09
2018-08-18T22:53:43.189Z,101468.38
2018-08-18T22:56:10.186Z,101468.87
2018-08-18T22:58:37.238Z,101471.55
2018-08-18T23:01:04.307Z,101469.47
2018-08-18T23:03:31.579Z,101466.07
2018-08-18T23:05:59.075Z,101469.56
2018-08-18T23:08:26.572Z,101467.80
2018-08-18T23:10:53.674Z,101465.84
2018-08-18T23:13:20.887Z,101464.51
2018-08-18T23:15:47.915Z,101468.63
2018-08-18T23:18:15.247Z,101474.20
2018-08-18T23:20:42.238Z,101465.89
2018-08-18T23:23:09.215Z,101458.48
2018-08-18T23:25:36.412Z,101458.48
2018-08-18T23:28:03.408Z,101461.28
2018-08-18T23:30:35.475Z,101461.05
2018-08-18T23:33:04.272Z,101465.11
2018-08-18T23:35:31.336Z,101463.08
2018-08-18T23:37:58.559Z,101460.48
2018-08-18T23:40:25.803Z,101459.53
2018-08-18T23:42:53.091Z,101459.88
2018-08-18T23:45:20.218Z,101456.94
2018-08-18T23:47:54.722Z,101463.59
2018-08-18T23:50:21.808Z,101461.31
2018-08-18T23:52:56.347Z,101461.86
2018-08-18T23:55:23.463Z,101462.83
2018-08-18T23:57:50.851Z,101455.48
